CDT,Max TemperatureF,Mean TemperatureF,Min TemperatureF,Max Dew PointF,MeanDew PointF,Min DewpointF,Max Humidity, Mean Humidity, Min Humidity, Max Sea Level PressureIn, Mean Sea Level PressureIn, Min Sea Level PressureIn, Max VisibilityMiles, Mean VisibilityMiles, Min VisibilityMiles, Max Wind SpeedMPH, Mean Wind SpeedMPH, Max Gust SpeedMPH,PrecipitationIn, CloudCover, Events, WindDirDegrees
2013-5-1,82,70,58,55,52,48,72,53,34,30.09,30.01,29.91,10,10,10,16,9,21,0.00,1,,160
2013-5-2,58,48,38,49,40,36,92,79,66,30.23,30.18,30.09,10,9,5,22,14,26,0.35,7,Rain,340
2013-5-3,46,42,37,42,37,34,93,89,85,30.15,29.95,29.78,10,6,2,20,14,26,1.97,8,Rain-Snow,347
2013-5-4,50,45,40,46,42,37,100,90,80,30.04,29.92,29.80,10,7,0,12,3,15,0.03,8,Fog-Rain,171
2013-5-5,70,58,45,57,50,44,100,82,63,30.03,29.99,29.91,10,6,0,18,7,22,0.01,7,Fog-Thunderstorm,9
2013-5-6,74,63,52,53,52,50,96,71,46,30.03,29.99,29.96,10,10,10,21,8,26,0.00,6,,358
2013-5-7,78,66,53,52,47,40,83,55,26,30.04,30.00,29.97,10,10,10,10,3,15,0.00,2,,10
2013-5-8,79,67,55,59,53,46,84,58,32,30.03,29.99,29.95,10,10,10,16,4,22,0.08,2,Rain,188
2013-5-9,69,64,58,63,59,54,100,86,72,29.94,29.88,29.82,10,9,2,15,8,20,0.40,6,Rain-Thunderstorm,188
2013-5-10,59,54,49,57,52,48,100,86,72,30.02,29.93,29.83,10,8,2,17,9,21,0.00,6,,321
2013-5-11,62,52,41,50,39,28,100,68,35,30.18,30.05,29.99,10,6,0,30,13,37,0.00,1,Fog,287
2013-5-12,59,48,36,32,29,27,70,50,30,30.26,30.19,30.14,10,10,10,17,7,29,0.00,0,,308
2013-5-13,72,55,37,42,36,31,82,61,40,30.20,30.11,29.97,10,10,10,14,8,20,0.00,0,,197
2013-5-14,88,72,56,61,53,42,72,54,35,29.94,29.82,29.73,10,10,10,22,13,31,0.00,0,,216
2013-5-15,85,76,67,64,58,52,64,54,44,29.87,29.83,29.79,10,10,8,21,9,26,0.00,1,Thunderstorm,248
2013-5-16,84,74,63,65,62,56,93,70,47,29.92,29.87,29.83,10,10,4,18,6,26,0.00,1,Thunderstorm,200
2013-5-17,78,69,59,63,59,53,87,72,56,29.96,29.93,29.90,10,10,8,15,6,20,T,6,Rain,141
2013-5-18,81,72,62,65,63,61,93,72,51,30.00,29.95,29.86,10,7,2,15,8,20,0.00,3,,140
2013-5-19,88,78,68,72,66,61,90,72,54,29.88,29.78,29.63,10,8,2,20,11,28,0.15,3,Rain-Thunderstorm,163
2013-5-20,82,72,62,66,61,59,93,72,51,29.84,29.74,29.65,10,8,0,37,14,45,1.32,5,Fog-Rain-Thunderstorm,201
2013-5-21,78,70,62,62,59,54,93,72,50,29.74,29.70,29.66,10,10,10,20,10,26,0.00,1,,216
2013-5-22,70,64,58,58,54,50,90,72,53,29.85,29.74,29.66,10,10,10,17,9,23,T,6,,256
2013-5-23,68,61,54,57,52,48,86,71,55,30.25,30.05,29.86,10,9,2,21,10,25,0.01,6,Rain,335
2013-5-24,68,57,46,48,43,38,93,65,37,30.42,30.33,30.27,10,10,8,14,7,17,0.00,0,,118
2013-5-25,65,59,52,52,48,42,77,67,57,30.36,30.25,30.16,10,8,2,21,11,28,0.48,7,Rain-Thunderstorm,117
2013-5-26,75,64,53,64,55,46,87,76,64,30.19,30.09,29.97,10,10,10,18,11,22,0.04,3,Rain-Thunderstorm,112
2013-5-27,73,68,63,64,62,60,93,83,73,29.98,29.91,29.64,10,6,1,29,9,37,2.12,7,Rain-Thunderstorm,22
2013-5-28,76,69,62,70,65,59,87,80,73,29.96,29.81,29.73,10,8,1,40,12,51,1.72,7,Rain-Thunderstorm,187
2013-5-29,86,74,62,68,63,59,90,69,48,29.96,29.85,29.76,10,10,10,26,12,33,T,2,,177
2013-5-30,83,73,63,67,62,59,93,76,58,29.83,29.78,29.71,10,8,1,32,15,41,1.00,5,Rain-Thunderstorm,186
2013-5-31,73,68,62,69,63,57,93,89,84,29.89,29.78,29.68,10,7,0,18,8,24,1.72,6,Fog-Rain-Thunderstorm,146